Terminal Aerodrome Forecast
Issued by NWS

Home | Current Version | Previous Version | Text Only | Print | Product List | Glossary Off
Versions: 1 2 3 4 5 6 7 8 9 10 11 12 13 14 15 16 17 18

000
FTUS43 KICT 251131
TAFCNU
TAF
KCNU 251131Z 2512/2612 15008KT P6SM SKC
     FM251600 17015G22KT P6SM SCT250
     FM260000 15011KT P6SM BKN200
     FM260600 12009KT P6SM BKN150 WS020/19040KT
     FM261100 09008KT P6SM BKN015=

USA.gov is the U.S. government's official web portal to all federal, state and local government web resources and services.